sensor_id;sensor_type;location;lat;lon;timestamp;temperature;humidity
79694;DHT22;69165;52.714;13.200;2023-10-09T05:01:47;9.30;99.90
79694;DHT22;69165;52.714;13.200;2023-10-09T05:03:49;9.30;99.90
79694;DHT22;69165;52.714;13.200;2023-10-09T05:05:51;9.30;99.90
79694;DHT22;69165;52.714;13.200;2023-10-09T05:07:53;9.30;99.90
79694;DHT22;69165;52.714;13.200;2023-10-09T05:09:56;9.30;99.90
79694;DHT22;69165;52.714;13.200;2023-10-09T05:11:57;9.30;99.90
79694;DHT22;69165;52.714;13.200;2023-10-09T05:13:58;9.30;99.90
79694;DHT22;69165;52.714;13.200;2023-10-09T05:16:00;9.30;99.90
79694;DHT22;69165;52.714;13.200;2023-10-09T05:18:02;9.30;99.90
79694;DHT22;69165;52.714;13.200;2023-10-09T05:20:03;9.30;99.90
79694;DHT22;69165;52.714;13.200;2023-10-09T05:22:10;9.30;99.90
79694;DHT22;69165;52.714;13.200;2023-10-09T05:24:17;9.40;99.90
79694;DHT22;69165;52.714;13.200;2023-10-09T05:26:19;9.40;99.90
79694;DHT22;69165;52.714;13.200;2023-10-09T05:28:26;9.40;99.90
79694;DHT22;69165;52.714;13.200;2023-10-09T05:30:32;9.30;99.90
79694;DHT22;69165;52.714;13.200;2023-10-09T05:32:33;9.40;99.90
79694;DHT22;69165;52.714;13.200;2023-10-09T05:34:36;9.40;99.90
79694;DHT22;69165;52.714;13.200;2023-10-09T05:36:38;9.40;99.90
79694;DHT22;69165;52.714;13.200;2023-10-09T05:38:39;9.40;99.90
79694;DHT22;69165;52.714;13.200;2023-10-09T05:40:41;9.30;99.90
79694;DHT22;69165;52.714;13.200;2023-10-09T05:42:42;9.30;99.90
79694;DHT22;69165;52.714;13.200;2023-10-09T05:44:44;9.30;99.90
79694;DHT22;69165;52.714;13.200;2023-10-09T05:46:51;9.30;99.90
79694;DHT22;69165;52.714;13.200;2023-10-09T05:48:58;9.30;99.90
79694;DHT22;69165;52.714;13.200;2023-10-09T05:50:59;9.40;99.90
79694;DHT22;69165;52.714;13.200;2023-10-09T05:53:07;9.40;99.90
79694;DHT22;69165;52.714;13.200;2023-10-09T05:55:08;9.40;99.90
79694;DHT22;69165;52.714;13.200;2023-10-09T05:57:26;9.40;99.90
79694;DHT22;69165;52.714;13.200;2023-10-09T05:59:42;9.40;99.90
79694;DHT22;69165;52.714;13.200;2023-10-09T06:01:50;9.40;99.90
79694;DHT22;69165;52.714;13.200;2023-10-09T06:04:06;9.40;99.90
79694;DHT22;69165;52.714;13.200;2023-10-09T06:06:13;9.40;99.90
79694;DHT22;69165;52.714;13.200;2023-10-09T06:08:16;9.40;99.90
79694;DHT22;69165;52.714;13.200;2023-10-09T06:10:18;9.40;99.90
79694;DHT22;69165;52.714;13.200;2023-10-09T06:12:19;9.40;99.90
79694;DHT22;69165;52.714;13.200;2023-10-09T06:14:40;9.50;99.90
79694;DHT22;69165;52.714;13.200;2023-10-09T06:16:48;9.50;99.90
79694;DHT22;69165;52.714;13.200;2023-10-09T06:18:55;9.50;99.90
79694;DHT22;69165;52.714;13.200;2023-10-09T06:20:56;9.60;99.90
79694;DHT22;69165;52.714;13.200;2023-10-09T06:23:03;9.60;99.90
79694;DHT22;69165;52.714;13.200;2023-10-09T06:25:05;9.60;99.90
79694;DHT22;69165;52.714;13.200;2023-10-09T06:27:09;9.60;99.90
79694;DHT22;69165;52.714;13.200;2023-10-09T06:29:15;9.60;99.90
79694;DHT22;69165;52.714;13.200;2023-10-09T06:31:16;9.50;99.90
79694;DHT22;69165;52.714;13.200;2023-10-09T06:33:33;9.60;99.90
79694;DHT22;69165;52.714;13.200;2023-10-09T06:35:34;9.60;99.90
79694;DHT22;69165;52.714;13.200;2023-10-09T06:37:35;9.60;99.90
79694;DHT22;69165;52.714;13.200;2023-10-09T06:39:37;9.60;99.90
79694;DHT22;69165;52.714;13.200;2023-10-09T06:41:44;9.60;99.90
79694;DHT22;69165;52.714;13.200;2023-10-09T06:43:46;9.60;99.90
79694;DHT22;69165;52.714;13.200;2023-10-09T06:45:48;9.70;99.90
79694;DHT22;69165;52.714;13.200;2023-10-09T06:47:58;9.70;99.90
79694;DHT22;69165;52.714;13.200;2023-10-09T06:50:19;9.70;99.90
79694;DHT22;69165;52.714;13.200;2023-10-09T06:52:30;9.70;99.90
79694;DHT22;69165;52.714;13.200;2023-10-09T06:54:32;9.70;99.90
79694;DHT22;69165;52.714;13.200;2023-10-09T06:56:34;9.80;99.90
79694;DHT22;69165;52.714;13.200;2023-10-09T06:58:51;9.80;99.90
79694;DHT22;69165;52.714;13.200;2023-10-09T07:00:52;9.80;99.90
79694;DHT22;69165;52.714;13.200;2023-10-09T07:02:56;9.80;99.90
79694;DHT22;69165;52.714;13.200;2023-10-09T07:04:57;9.80;99.90
79694;DHT22;69165;52.714;13.200;2023-10-09T07:06:59;9.90;99.90
79694;DHT22;69165;52.714;13.200;2023-10-09T07:09:00;9.80;99.90
79694;DHT22;69165;52.714;13.200;2023-10-09T07:11:20;9.80;99.90
79694;DHT22;69165;52.714;13.200;2023-10-09T07:13:21;9.90;99.90
79694;DHT22;69165;52.714;13.200;2023-10-09T07:15:24;9.90;99.90
79694;DHT22;69165;52.714;13.200;2023-10-09T07:17:30;9.90;99.90
79694;DHT22;69165;52.714;13.200;2023-10-09T07:19:49;9.90;99.90
79694;DHT22;69165;52.714;13.200;2023-10-09T07:22:01;9.90;99.90
79694;DHT22;69165;52.714;13.200;2023-10-09T07:24:04;9.90;99.90
79694;DHT22;69165;52.714;13.200;2023-10-09T07:26:05;10.00;99.90
79694;DHT22;69165;52.714;13.200;2023-10-09T07:28:21;10.00;99.90
79694;DHT22;69165;52.714;13.200;2023-10-09T07:30:29;10.00;99.90
79694;DHT22;69165;52.714;13.200;2023-10-09T07:32:37;10.00;99.90
79694;DHT22;69165;52.714;13.200;2023-10-09T07:34:38;10.00;99.90
79694;DHT22;69165;52.714;13.200;2023-10-09T07:36:55;10.00;99.90
79694;DHT22;69165;52.714;13.200;2023-10-09T07:38:56;10.00;99.90
79694;DHT22;69165;52.714;13.200;2023-10-09T07:40:57;10.00;99.90
79694;DHT22;69165;52.714;13.200;2023-10-09T07:43:18;10.00;99.90
79694;DHT22;69165;52.714;13.200;2023-10-09T07:45:19;10.00;99.90
79694;DHT22;69165;52.714;13.200;2023-10-09T07:47:35;10.10;99.90
79694;DHT22;69165;52.714;13.200;2023-10-09T07:49:42;10.10;99.90
79694;DHT22;69165;52.714;13.200;2023-10-09T07:51:44;10.10;99.90
79694;DHT22;69165;52.714;13.200;2023-10-09T07:53:46;10.10;99.90
79694;DHT22;69165;52.714;13.200;2023-10-09T07:55:48;10.10;99.90
79694;DHT22;69165;52.714;13.200;2023-10-09T07:57:55;10.10;99.90
79694;DHT22;69165;52.714;13.200;2023-10-09T07:59:57;10.10;99.90
79694;DHT22;69165;52.714;13.200;2023-10-09T08:02:02;10.20;99.90
79694;DHT22;69165;52.714;13.200;2023-10-09T08:04:03;10.10;99.90
79694;DHT22;69165;52.714;13.200;2023-10-09T08:06:06;10.20;99.90
79694;DHT22;69165;52.714;13.200;2023-10-09T08:08:08;10.20;99.90
79694;DHT22;69165;52.714;13.200;2023-10-09T08:10:15;10.20;99.90
79694;DHT22;69165;52.714;13.200;2023-10-09T08:12:33;10.20;99.90
79694;DHT22;69165;52.714;13.200;2023-10-09T08:14:41;10.20;99.90
79694;DHT22;69165;52.714;13.200;2023-10-09T08:16:45;10.20;99.90
79694;DHT22;69165;52.714;13.200;2023-10-09T08:18:46;10.20;99.90
79694;DHT22;69165;52.714;13.200;2023-10-09T08:20:47;10.20;99.90
79694;DHT22;69165;52.714;13.200;2023-10-09T08:23:04;10.20;99.90
79694;DHT22;69165;52.714;13.200;2023-10-09T08:25:06;10.30;99.90
79694;DHT22;69165;52.714;13.200;2023-10-09T08:27:08;10.20;99.90
79694;DHT22;69165;52.714;13.200;2023-10-09T08:29:14;10.30;99.90
79694;DHT22;69165;52.714;13.200;2023-10-09T08:31:17;10.20;99.90
79694;DHT22;69165;52.714;13.200;2023-10-09T08:33:20;10.30;99.90
79694;DHT22;69165;52.714;13.200;2023-10-09T08:35:29;10.30;99.90
79694;DHT22;69165;52.714;13.200;2023-10-09T08:37:30;10.30;99.90
79694;DHT22;69165;52.714;13.200;2023-10-09T08:39:32;10.30;99.90
79694;DHT22;69165;52.714;13.200;2023-10-09T08:41:34;10.30;99.90
79694;DHT22;69165;52.714;13.200;2023-10-09T08:43:35;10.30;99.90
79694;DHT22;69165;52.714;13.200;2023-10-09T08:45:38;10.30;99.90
79694;DHT22;69165;52.714;13.200;2023-10-09T08:47:38;10.30;99.90
79694;DHT22;69165;52.714;13.200;2023-10-09T08:49:40;10.40;99.90
79694;DHT22;69165;52.714;13.200;2023-10-09T08:51:42;10.40;99.90
79694;DHT22;69165;52.714;13.200;2023-10-09T08:53:43;10.40;99.90
79694;DHT22;69165;52.714;13.200;2023-10-09T08:55:44;10.40;99.90
79694;DHT22;69165;52.714;13.200;2023-10-09T08:57:45;10.40;99.90
79694;DHT22;69165;52.714;13.200;2023-10-09T08:59:47;10.40;99.90
79694;DHT22;69165;52.714;13.200;2023-10-09T09:01:48;10.40;99.90
79694;DHT22;69165;52.714;13.200;2023-10-09T09:03:50;10.40;99.90
79694;DHT22;69165;52.714;13.200;2023-10-09T09:05:58;10.40;99.90
79694;DHT22;69165;52.714;13.200;2023-10-09T09:07:59;10.50;99.90
79694;DHT22;69165;52.714;13.200;2023-10-09T09:10:00;10.40;99.90
79694;DHT22;69165;52.714;13.200;2023-10-09T09:12:04;10.40;99.90
79694;DHT22;69165;52.714;13.200;2023-10-09T09:14:06;10.40;99.90
79694;DHT22;69165;52.714;13.200;2023-10-09T09:16:14;10.50;99.90
79694;DHT22;69165;52.714;13.200;2023-10-09T09:18:15;10.50;99.90
79694;DHT22;69165;52.714;13.200;2023-10-09T09:20:21;10.60;99.90
79694;DHT22;69165;52.714;13.200;2023-10-09T09:22:23;10.50;99.90
79694;DHT22;69165;52.714;13.200;2023-10-09T09:24:25;10.60;99.90
79694;DHT22;69165;52.714;13.200;2023-10-09T09:26:34;10.60;99.90
79694;DHT22;69165;52.714;13.200;2023-10-09T09:28:35;10.50;99.90
79694;DHT22;69165;52.714;13.200;2023-10-09T09:30:36;10.60;99.90
79694;DHT22;69165;52.714;13.200;2023-10-09T09:32:37;10.60;99.90
79694;DHT22;69165;52.714;13.200;2023-10-09T09:34:45;10.60;99.90
79694;DHT22;69165;52.714;13.200;2023-10-09T09:36:50;10.60;99.90
79694;DHT22;69165;52.714;13.200;2023-10-09T09:38:52;10.60;99.90
79694;DHT22;69165;52.714;13.200;2023-10-09T09:40:56;10.70;99.90
79694;DHT22;69165;52.714;13.200;2023-10-09T09:42:57;10.70;99.90
79694;DHT22;69165;52.714;13.200;2023-10-09T09:45:00;10.80;99.90
79694;DHT22;69165;52.714;13.200;2023-10-09T09:47:01;10.70;99.90
79694;DHT22;69165;52.714;13.200;2023-10-09T09:49:04;10.80;99.90
79694;DHT22;69165;52.714;13.200;2023-10-09T09:51:04;10.70;99.90
79694;DHT22;69165;52.714;13.200;2023-10-09T09:53:05;10.80;99.90
79694;DHT22;69165;52.714;13.200;2023-10-09T09:55:08;10.70;99.90
79694;DHT22;69165;52.714;13.200;2023-10-09T09:57:08;10.80;99.90
79694;DHT22;69165;52.714;13.200;2023-10-09T09:59:09;10.80;99.90
79694;DHT22;69165;52.714;13.200;2023-10-09T10:01:11;10.80;99.90
79694;DHT22;69165;52.714;13.200;2023-10-09T10:03:22;10.80;99.90
79694;DHT22;69165;52.714;13.200;2023-10-09T10:05:22;10.80;99.90
79694;DHT22;69165;52.714;13.200;2023-10-09T10:07:23;10.80;99.90
79694;DHT22;69165;52.714;13.200;2023-10-09T10:13:56;10.90;99.90
79694;DHT22;69165;52.714;13.200;2023-10-09T10:16:04;10.90;99.90
79694;DHT22;69165;52.714;13.200;2023-10-09T10:18:08;10.90;99.90
79694;DHT22;69165;52.714;13.200;2023-10-09T10:20:10;10.90;99.90
79694;DHT22;69165;52.714;13.200;2023-10-09T10:22:24;10.90;99.90
79694;DHT22;69165;52.714;13.200;2023-10-09T10:24:41;11.00;99.90
79694;DHT22;69165;52.714;13.200;2023-10-09T10:26:48;11.00;99.90
79694;DHT22;69165;52.714;13.200;2023-10-09T10:30:57;11.00;99.90
79694;DHT22;69165;52.714;13.200;2023-10-09T10:32:59;11.00;99.90
79694;DHT22;69165;52.714;13.200;2023-10-09T10:35:00;11.10;99.90
79694;DHT22;69165;52.714;13.200;2023-10-09T10:37:01;11.10;99.90
79694;DHT22;69165;52.714;13.200;2023-10-09T10:39:03;11.10;99.90
79694;DHT22;69165;52.714;13.200;2023-10-09T10:41:08;11.20;99.90
79694;DHT22;69165;52.714;13.200;2023-10-09T10:43:14;11.20;99.90
79694;DHT22;69165;52.714;13.200;2023-10-09T10:45:17;11.20;99.90
79694;DHT22;69165;52.714;13.200;2023-10-09T10:47:12;11.20;99.90
79694;DHT22;69165;52.714;13.200;2023-10-09T10:49:25;11.20;99.90
79694;DHT22;69165;52.714;13.200;2023-10-09T10:51:26;11.20;99.90
79694;DHT22;69165;52.714;13.200;2023-10-09T10:53:29;11.20;99.90
79694;DHT22;69165;52.714;13.200;2023-10-09T10:55:30;11.20;99.90
79694;DHT22;69165;52.714;13.200;2023-10-09T10:57:47;11.20;99.90
79694;DHT22;69165;52.714;13.200;2023-10-09T10:59:54;11.30;99.90
79694;DHT22;69165;52.714;13.200;2023-10-09T11:01:55;11.30;99.90
79694;DHT22;69165;52.714;13.200;2023-10-09T11:04:10;11.30;99.90
79694;DHT22;69165;52.714;13.200;2023-10-09T11:06:01;11.30;99.90
79694;DHT22;69165;52.714;13.200;2023-10-09T11:08:05;11.30;99.90
79694;DHT22;69165;52.714;13.200;2023-10-09T11:10:04;11.40;99.90
79694;DHT22;69165;52.714;13.200;2023-10-09T11:12:09;11.40;99.90
79694;DHT22;69165;52.714;13.200;2023-10-09T11:14:14;11.40;99.90
79694;DHT22;69165;52.714;13.200;2023-10-09T11:16:16;11.50;99.90
79694;DHT22;69165;52.714;13.200;2023-10-09T11:18:17;11.50;99.90
79694;DHT22;69165;52.714;13.200;2023-10-09T11:20:21;11.50;99.90
79694;DHT22;69165;52.714;13.200;2023-10-09T11:22:24;11.60;99.90
79694;DHT22;69165;52.714;13.200;2023-10-09T11:24:26;11.60;99.90
79694;DHT22;69165;52.714;13.200;2023-10-09T11:26:27;11.60;99.90
79694;DHT22;69165;52.714;13.200;2023-10-09T11:28:29;11.60;99.90
79694;DHT22;69165;52.714;13.200;2023-10-09T11:30:31;11.60;99.90
79694;DHT22;69165;52.714;13.200;2023-10-09T11:32:32;11.60;99.90
79694;DHT22;69165;52.714;13.200;2023-10-09T11:34:33;11.60;99.90
79694;DHT22;69165;52.714;13.200;2023-10-09T11:36:34;11.60;99.90
79694;DHT22;69165;52.714;13.200;2023-10-09T11:38:35;11.60;99.90
79694;DHT22;69165;52.714;13.200;2023-10-09T11:40:37;11.60;99.90
79694;DHT22;69165;52.714;13.200;2023-10-09T11:43:00;11.60;99.90
79694;DHT22;69165;52.714;13.200;2023-10-09T11:45:01;11.60;99.90
79694;DHT22;69165;52.714;13.200;2023-10-09T11:47:02;11.60;99.90
79694;DHT22;69165;52.714;13.200;2023-10-09T11:49:20;11.60;99.90
79694;DHT22;69165;52.714;13.200;2023-10-09T11:51:31;11.60;99.90
79694;DHT22;69165;52.714;13.200;2023-10-09T11:55:39;11.70;99.90
79694;DHT22;69165;52.714;13.200;2023-10-09T11:57:41;11.70;99.90
79694;DHT22;69165;52.714;13.200;2023-10-09T11:59:42;11.70;99.90
79694;DHT22;69165;52.714;13.200;2023-10-09T12:01:45;11.70;99.90
79694;DHT22;69165;52.714;13.200;2023-10-09T12:03:45;11.80;99.90
79694;DHT22;69165;52.714;13.200;2023-10-09T12:05:55;11.80;99.90
79694;DHT22;69165;52.714;13.200;2023-10-09T12:07:56;11.80;99.90
79694;DHT22;69165;52.714;13.200;2023-10-09T12:09:58;11.80;99.90
79694;DHT22;69165;52.714;13.200;2023-10-09T12:12:02;11.80;99.90
79694;DHT22;69165;52.714;13.200;2023-10-09T12:14:03;11.90;99.90
79694;DHT22;69165;52.714;13.200;2023-10-09T12:16:05;11.90;99.90
79694;DHT22;69165;52.714;13.200;2023-10-09T12:18:10;11.90;99.90
79694;DHT22;69165;52.714;13.200;2023-10-09T12:20:11;11.90;99.90
79694;DHT22;69165;52.714;13.200;2023-10-09T12:22:12;12.00;99.90
79694;DHT22;69165;52.714;13.200;2023-10-09T12:24:14;12.00;99.90
79694;DHT22;69165;52.714;13.200;2023-10-09T12:26:16;12.00;99.90
79694;DHT22;69165;52.714;13.200;2023-10-09T12:28:18;11.90;99.90
79694;DHT22;69165;52.714;13.200;2023-10-09T12:30:20;12.00;99.90
79694;DHT22;69165;52.714;13.200;2023-10-09T12:32:23;12.00;99.90
79694;DHT22;69165;52.714;13.200;2023-10-09T12:34:25;11.90;99.90
79694;DHT22;69165;52.714;13.200;2023-10-09T12:36:26;12.00;99.90
79694;DHT22;69165;52.714;13.200;2023-10-09T12:38:27;12.00;99.90
79694;DHT22;69165;52.714;13.200;2023-10-09T12:40:32;12.00;99.90
79694;DHT22;69165;52.714;13.200;2023-10-09T12:42:33;12.00;99.90
79694;DHT22;69165;52.714;13.200;2023-10-09T12:44:35;12.00;99.90
79694;DHT22;69165;52.714;13.200;2023-10-09T12:46:37;12.00;99.90
79694;DHT22;69165;52.714;13.200;2023-10-09T12:48:38;12.00;99.90
79694;DHT22;69165;52.714;13.200;2023-10-09T12:50:40;12.00;99.90
79694;DHT22;69165;52.714;13.200;2023-10-09T12:52:43;12.00;99.90
79694;DHT22;69165;52.714;13.200;2023-10-09T12:54:45;12.00;99.90
79694;DHT22;69165;52.714;13.200;2023-10-09T12:56:46;12.00;99.90
79694;DHT22;69165;52.714;13.200;2023-10-09T12:58:47;12.10;99.90
79694;DHT22;69165;52.714;13.200;2023-10-09T13:00:53;12.10;99.90
79694;DHT22;69165;52.714;13.200;2023-10-09T13:02:55;12.10;99.90
79694;DHT22;69165;52.714;13.200;2023-10-09T13:04:56;12.10;99.90
79694;DHT22;69165;52.714;13.200;2023-10-09T13:06:58;12.10;99.90
79694;DHT22;69165;52.714;13.200;2023-10-09T13:08:59;12.10;99.90
79694;DHT22;69165;52.714;13.200;2023-10-09T13:11:02;12.10;99.90
79694;DHT22;69165;52.714;13.200;2023-10-09T13:13:03;12.10;99.90
79694;DHT22;69165;52.714;13.200;2023-10-09T13:15:05;12.10;99.90
79694;DHT22;69165;52.714;13.200;2023-10-09T13:17:06;12.20;99.90
79694;DHT22;69165;52.714;13.200;2023-10-09T13:19:09;12.10;99.90
79694;DHT22;69165;52.714;13.200;2023-10-09T13:21:10;12.10;99.90
79694;DHT22;69165;52.714;13.200;2023-10-09T13:23:12;12.10;99.90
79694;DHT22;69165;52.714;13.200;2023-10-09T13:25:13;12.10;99.90
79694;DHT22;69165;52.714;13.200;2023-10-09T13:27:17;12.10;99.90
79694;DHT22;69165;52.714;13.200;2023-10-09T13:29:18;12.20;99.90
79694;DHT22;69165;52.714;13.200;2023-10-09T13:31:24;12.10;99.90
79694;DHT22;69165;52.714;13.200;2023-10-09T13:33:27;12.10;99.90
79694;DHT22;69165;52.714;13.200;2023-10-09T13:35:28;12.10;99.90
79694;DHT22;69165;52.714;13.200;2023-10-09T13:37:29;12.10;99.90
79694;DHT22;69165;52.714;13.200;2023-10-09T13:39:30;12.10;99.90
79694;DHT22;69165;52.714;13.200;2023-10-09T13:41:32;12.10;99.90
79694;DHT22;69165;52.714;13.200;2023-10-09T13:43:34;12.20;99.90
79694;DHT22;69165;52.714;13.200;2023-10-09T13:45:38;12.10;99.90
79694;DHT22;69165;52.714;13.200;2023-10-09T13:47:36;12.10;99.90
79694;DHT22;69165;52.714;13.200;2023-10-09T13:49:37;12.10;99.90
79694;DHT22;69165;52.714;13.200;2023-10-09T13:51:40;12.20;99.90
79694;DHT22;69165;52.714;13.200;2023-10-09T13:53:41;12.10;99.90
79694;DHT22;69165;52.714;13.200;2023-10-09T13:55:43;12.10;99.90
79694;DHT22;69165;52.714;13.200;2023-10-09T13:57:44;12.10;99.90
79694;DHT22;69165;52.714;13.200;2023-10-09T13:59:45;12.10;99.90
79694;DHT22;69165;52.714;13.200;2023-10-09T14:01:51;12.10;99.90
79694;DHT22;69165;52.714;13.200;2023-10-09T14:03:53;12.10;99.90
79694;DHT22;69165;52.714;13.200;2023-10-09T14:05:54;12.10;99.90
79694;DHT22;69165;52.714;13.200;2023-10-09T14:07:55;12.00;99.90
79694;DHT22;69165;52.714;13.200;2023-10-09T14:09:56;12.10;99.90
79694;DHT22;69165;52.714;13.200;2023-10-09T14:11:58;12.10;99.90
79694;DHT22;69165;52.714;13.200;2023-10-09T14:14:08;12.20;99.90
79694;DHT22;69165;52.714;13.200;2023-10-09T14:16:09;12.10;99.90
79694;DHT22;69165;52.714;13.200;2023-10-09T14:18:11;12.10;99.90
79694;DHT22;69165;52.714;13.200;2023-10-09T14:20:12;12.20;99.90
79694;DHT22;69165;52.714;13.200;2023-10-09T14:22:21;12.20;99.90
79694;DHT22;69165;52.714;13.200;2023-10-09T14:24:21;12.20;99.90
79694;DHT22;69165;52.714;13.200;2023-10-09T14:26:25;12.20;99.90
79694;DHT22;69165;52.714;13.200;2023-10-09T14:28:27;12.20;99.90
79694;DHT22;69165;52.714;13.200;2023-10-09T14:30:29;12.20;99.90
79694;DHT22;69165;52.714;13.200;2023-10-09T14:32:32;12.20;99.90
79694;DHT22;69165;52.714;13.200;2023-10-09T14:34:34;12.20;99.90
79694;DHT22;69165;52.714;13.200;2023-10-09T14:36:36;12.20;99.90
79694;DHT22;69165;52.714;13.200;2023-10-09T14:38:38;12.20;99.90
79694;DHT22;69165;52.714;13.200;2023-10-09T14:40:41;12.20;99.90
79694;DHT22;69165;52.714;13.200;2023-10-09T14:42:42;12.20;99.90
79694;DHT22;69165;52.714;13.200;2023-10-09T14:44:43;12.20;99.90
79694;DHT22;69165;52.714;13.200;2023-10-09T14:46:47;12.20;99.90
79694;DHT22;69165;52.714;13.200;2023-10-09T14:48:49;12.20;99.90
79694;DHT22;69165;52.714;13.200;2023-10-09T14:50:51;12.20;99.90
79694;DHT22;69165;52.714;13.200;2023-10-09T14:52:55;12.20;99.90
79694;DHT22;69165;52.714;13.200;2023-10-09T14:54:57;12.20;99.90
79694;DHT22;69165;52.714;13.200;2023-10-09T14:56:58;12.20;99.90
79694;DHT22;69165;52.714;13.200;2023-10-09T14:59:00;12.20;99.90
79694;DHT22;69165;52.714;13.200;2023-10-09T15:01:07;12.20;99.90
79694;DHT22;69165;52.714;13.200;2023-10-09T15:03:08;12.20;99.90
79694;DHT22;69165;52.714;13.200;2023-10-09T15:05:10;12.10;99.90
79694;DHT22;69165;52.714;13.200;2023-10-09T15:07:11;12.10;99.90
79694;DHT22;69165;52.714;13.200;2023-10-09T15:09:13;12.10;99.90
79694;DHT22;69165;52.714;13.200;2023-10-09T15:11:14;12.20;99.90
79694;DHT22;69165;52.714;13.200;2023-10-09T15:13:17;12.10;99.90
79694;DHT22;69165;52.714;13.200;2023-10-09T15:15:18;12.20;99.90
79694;DHT22;69165;52.714;13.200;2023-10-09T15:17:19;12.20;99.90
79694;DHT22;69165;52.714;13.200;2023-10-09T15:19:20;12.10;99.90
79694;DHT22;69165;52.714;13.200;2023-10-09T15:21:22;12.10;99.90
79694;DHT22;69165;52.714;13.200;2023-10-09T15:23:23;12.10;99.90
79694;DHT22;69165;52.714;13.200;2023-10-09T15:25:24;12.10;99.90
79694;DHT22;69165;52.714;13.200;2023-10-09T15:27:25;12.10;99.90
79694;DHT22;69165;52.714;13.200;2023-10-09T15:29:27;12.00;99.90
79694;DHT22;69165;52.714;13.200;2023-10-09T15:31:29;12.00;99.90
79694;DHT22;69165;52.714;13.200;2023-10-09T15:33:30;12.00;99.90
79694;DHT22;69165;52.714;13.200;2023-10-09T15:35:31;12.00;99.90
79694;DHT22;69165;52.714;13.200;2023-10-09T15:37:32;11.90;99.90
79694;DHT22;69165;52.714;13.200;2023-10-09T15:39:35;11.90;99.90
79694;DHT22;69165;52.714;13.200;2023-10-09T15:41:36;12.00;99.90
79694;DHT22;69165;52.714;13.200;2023-10-09T15:43:37;11.90;99.90
79694;DHT22;69165;52.714;13.200;2023-10-09T15:45:41;11.90;99.90
79694;DHT22;69165;52.714;13.200;2023-10-09T15:47:42;11.90;99.90
79694;DHT22;69165;52.714;13.200;2023-10-09T15:49:44;11.90;99.90
79694;DHT22;69165;52.714;13.200;2023-10-09T15:51:45;11.90;99.90
79694;DHT22;69165;52.714;13.200;2023-10-09T15:53:46;11.80;99.90
79694;DHT22;69165;52.714;13.200;2023-10-09T15:55:48;11.80;99.90
79694;DHT22;69165;52.714;13.200;2023-10-09T15:57:50;11.80;99.90
79694;DHT22;69165;52.714;13.200;2023-10-09T15:59:51;11.80;99.90
79694;DHT22;69165;52.714;13.200;2023-10-09T16:01:52;11.80;99.90
79694;DHT22;69165;52.714;13.200;2023-10-09T16:03:53;11.80;99.90
79694;DHT22;69165;52.714;13.200;2023-10-09T16:05:57;11.80;99.90
79694;DHT22;69165;52.714;13.200;2023-10-09T16:07:57;11.80;99.90
79694;DHT22;69165;52.714;13.200;2023-10-09T16:09:57;11.70;99.90
79694;DHT22;69165;52.714;13.200;2023-10-09T16:11:58;11.70;99.90
79694;DHT22;69165;52.714;13.200;2023-10-09T16:14:00;11.70;99.90
79694;DHT22;69165;52.714;13.200;2023-10-09T16:16:01;11.70;99.90
79694;DHT22;69165;52.714;13.200;2023-10-09T16:18:02;11.80;99.90
79694;DHT22;69165;52.714;13.200;2023-10-09T16:20:05;11.70;99.90
79694;DHT22;69165;52.714;13.200;2023-10-09T16:22:06;11.80;99.90
79694;DHT22;69165;52.714;13.200;2023-10-09T16:24:08;11.70;99.90
79694;DHT22;69165;52.714;13.200;2023-10-09T16:26:10;11.70;99.90
79694;DHT22;69165;52.714;13.200;2023-10-09T16:28:12;11.70;99.90
79694;DHT22;69165;52.714;13.200;2023-10-09T16:30:15;11.60;99.90
79694;DHT22;69165;52.714;13.200;2023-10-09T16:32:14;11.70;99.90
79694;DHT22;69165;52.714;13.200;2023-10-09T16:34:15;11.60;99.90
79694;DHT22;69165;52.714;13.200;2023-10-09T16:36:17;11.60;99.90
79694;DHT22;69165;52.714;13.200;2023-10-09T16:38:18;11.60;99.90
79694;DHT22;69165;52.714;13.200;2023-10-09T16:40:19;11.60;99.90
79694;DHT22;69165;52.714;13.200;2023-10-09T16:42:20;11.60;99.90
79694;DHT22;69165;52.714;13.200;2023-10-09T16:44:23;11.60;99.90
79694;DHT22;69165;52.714;13.200;2023-10-09T16:46:25;11.60;99.90
79694;DHT22;69165;52.714;13.200;2023-10-09T16:48:27;11.60;99.90
79694;DHT22;69165;52.714;13.200;2023-10-09T16:50:29;11.60;99.90
79694;DHT22;69165;52.714;13.200;2023-10-09T16:52:30;11.70;99.90
79694;DHT22;69165;52.714;13.200;2023-10-09T16:54:31;11.60;99.90
79694;DHT22;69165;52.714;13.200;2023-10-09T16:56:33;11.60;99.90
79694;DHT22;69165;52.714;13.200;2023-10-09T16:58:35;11.60;99.90
79694;DHT22;69165;52.714;13.200;2023-10-09T17:00:37;11.60;99.90
79694;DHT22;69165;52.714;13.200;2023-10-09T17:02:39;11.60;99.90
79694;DHT22;69165;52.714;13.200;2023-10-09T17:04:39;11.50;99.90
79694;DHT22;69165;52.714;13.200;2023-10-09T17:06:40;11.50;99.90
79694;DHT22;69165;52.714;13.200;2023-10-09T17:08:42;11.50;99.90
79694;DHT22;69165;52.714;13.200;2023-10-09T17:10:43;11.50;99.90
79694;DHT22;69165;52.714;13.200;2023-10-09T17:12:44;11.50;99.90
79694;DHT22;69165;52.714;13.200;2023-10-09T17:14:47;11.40;99.90
79694;DHT22;69165;52.714;13.200;2023-10-09T17:16:48;11.40;99.90
79694;DHT22;69165;52.714;13.200;2023-10-09T17:18:50;11.40;99.90
79694;DHT22;69165;52.714;13.200;2023-10-09T17:20:52;11.40;99.90
79694;DHT22;69165;52.714;13.200;2023-10-09T17:22:53;11.40;99.90
79694;DHT22;69165;52.714;13.200;2023-10-09T17:24:54;11.40;99.90
79694;DHT22;69165;52.714;13.200;2023-10-09T17:26:55;11.40;99.90
79694;DHT22;69165;52.714;13.200;2023-10-09T17:28:56;11.40;99.90
79694;DHT22;69165;52.714;13.200;2023-10-09T17:30:59;11.40;99.90
79694;DHT22;69165;52.714;13.200;2023-10-09T17:33:00;11.40;99.90
79694;DHT22;69165;52.714;13.200;2023-10-09T17:35:01;11.40;99.90
79694;DHT22;69165;52.714;13.200;2023-10-09T17:37:03;11.40;99.90
79694;DHT22;69165;52.714;13.200;2023-10-09T17:39:05;11.40;99.90
79694;DHT22;69165;52.714;13.200;2023-10-09T17:41:06;11.40;99.90
79694;DHT22;69165;52.714;13.200;2023-10-09T17:43:08;11.30;99.90
79694;DHT22;69165;52.714;13.200;2023-10-09T17:45:09;11.30;99.90
79694;DHT22;69165;52.714;13.200;2023-10-09T17:47:10;11.30;99.90
79694;DHT22;69165;52.714;13.200;2023-10-09T17:49:12;11.30;99.90
79694;DHT22;69165;52.714;13.200;2023-10-09T17:51:14;11.30;99.90
79694;DHT22;69165;52.714;13.200;2023-10-09T17:53:16;11.20;99.90
79694;DHT22;69165;52.714;13.200;2023-10-09T17:55:18;11.20;99.90
79694;DHT22;69165;52.714;13.200;2023-10-09T17:57:19;11.20;99.90